createdAt,value
2024-04-16T00:00:54.011Z,34.13
2024-04-16T00:01:54.905Z,34.14
2024-04-16T00:02:54.031Z,34.11
2024-04-16T00:03:54.018Z,34.14
2024-04-16T00:04:54.211Z,34.13
2024-04-16T00:05:54.092Z,34.13
2024-04-16T00:06:54.219Z,34.10
2024-04-16T00:07:54.215Z,34.12
2024-04-16T00:08:54.493Z,34.12
2024-04-16T00:09:54.315Z,34.10
2024-04-16T00:10:54.473Z,34.11
2024-04-16T00:11:54.428Z,34.09
2024-04-16T00:12:54.456Z,34.10
2024-04-16T00:13:55.418Z,34.09
2024-04-16T00:14:54.554Z,34.09
2024-04-16T00:15:54.622Z,34.09
2024-04-16T00:16:54.795Z,34.09
2024-04-16T00:17:54.764Z,34.08
2024-04-16T00:18:54.811Z,34.08
2024-04-16T00:19:55.258Z,34.07
2024-04-16T00:20:54.882Z,34.07
2024-04-16T00:21:55.163Z,34.04
2024-04-16T00:22:55.041Z,34.08
2024-04-16T00:23:55.896Z,34.06
2024-04-16T00:24:55.918Z,34.05
2024-04-16T00:25:55.141Z,34.07
2024-04-16T00:26:55.334Z,34.06
2024-04-16T00:27:55.296Z,34.06
2024-04-16T00:28:55.280Z,34.04
2024-04-16T00:29:55.418Z,34.05
2024-04-16T00:30:55.406Z,34.03
2024-04-16T00:31:55.486Z,34.02
2024-04-16T00:32:55.515Z,34.07
2024-04-16T00:33:55.694Z,34.06
2024-04-16T00:34:55.585Z,34.03
2024-04-16T00:35:55.634Z,34.03
2024-04-16T00:36:55.679Z,34.02
2024-04-16T00:37:55.765Z,34.03
2024-04-16T00:38:55.841Z,34.02
2024-04-16T00:39:55.919Z,34.01
2024-04-16T00:40:55.956Z,34.01
2024-04-16T00:41:55.964Z,34.00
2024-04-16T00:42:55.981Z,34.01
2024-04-16T00:43:56.035Z,34.02
2024-04-16T00:44:56.117Z,33.99
2024-04-16T00:45:56.141Z,34.02
2024-04-16T00:46:56.258Z,33.99
2024-04-16T00:47:56.303Z,33.99
2024-04-16T00:48:56.309Z,33.98
2024-04-16T00:49:56.898Z,33.99
2024-04-16T00:50:56.425Z,34.01
2024-04-16T00:51:56.465Z,33.98
2024-04-16T00:52:56.502Z,34.00
2024-04-16T00:53:56.626Z,33.99
2024-04-16T00:54:56.647Z,33.99
2024-04-16T00:55:56.699Z,33.98
2024-04-16T00:56:56.768Z,33.99
2024-04-16T00:57:56.835Z,33.99
2024-04-16T00:58:56.880Z,33.98
2024-04-16T00:59:56.913Z,33.98
2024-04-16T01:00:57.024Z,33.98
2024-04-16T01:01:57.031Z,33.99
2024-04-16T01:02:57.130Z,33.96
2024-04-16T01:03:57.178Z,33.97
2024-04-16T01:04:57.225Z,33.99
2024-04-16T01:05:57.289Z,33.97
2024-04-16T01:06:57.355Z,33.98
2024-04-16T01:07:57.398Z,33.98
2024-04-16T01:08:57.475Z,33.95
2024-04-16T01:09:57.517Z,33.98
2024-04-16T01:10:57.584Z,33.96
2024-04-16T01:11:57.629Z,33.96
2024-04-16T01:12:57.665Z,33.96
2024-04-16T01:13:57.752Z,33.94
2024-04-16T01:14:57.789Z,33.95
2024-04-16T01:15:57.896Z,33.93
2024-04-16T01:16:57.907Z,33.95
2024-04-16T01:17:58.100Z,33.92
2024-04-16T01:18:58.233Z,33.94
2024-04-16T01:19:58.103Z,33.93
2024-04-16T01:20:58.166Z,33.94
2024-04-16T01:21:58.301Z,33.92
2024-04-16T01:22:58.276Z,33.96
2024-04-16T01:23:58.405Z,33.93
2024-04-16T01:24:58.535Z,33.92
2024-04-16T01:25:58.494Z,33.92
2024-04-16T01:26:58.586Z,33.94
2024-04-16T01:27:58.660Z,33.93
2024-04-16T01:28:58.665Z,33.95
2024-04-16T01:29:58.709Z,33.91
2024-04-16T01:30:58.770Z,33.93
2024-04-16T01:31:58.840Z,33.93
2024-04-16T01:32:58.914Z,33.90
2024-04-16T01:33:58.975Z,33.92
2024-04-16T01:34:59.064Z,33.90
2024-04-16T01:35:59.072Z,33.93
2024-04-16T01:36:59.117Z,33.92
2024-04-16T01:37:59.157Z,33.90
2024-04-16T01:38:59.165Z,33.89
2024-04-16T01:39:59.311Z,33.90
2024-04-16T01:40:59.328Z,33.88
2024-04-16T01:41:59.369Z,33.86
2024-04-16T01:42:59.623Z,33.88
2024-04-16T01:43:59.494Z,33.88
2024-04-16T01:44:59.548Z,33.87
2024-04-16T01:45:59.620Z,33.85
2024-04-16T01:46:59.719Z,33.86
2024-04-16T01:47:59.892Z,33.86
2024-04-16T01:49:02.043Z,33.85
2024-04-16T01:49:59.797Z,33.84
2024-04-16T01:50:59.802Z,33.86
2024-04-16T01:51:59.815Z,33.86
2024-04-16T01:52:59.801Z,33.80
2024-04-16T01:53:59.798Z,33.79
2024-04-16T01:54:59.819Z,33.82
2024-04-16T01:55:59.789Z,33.81
2024-04-16T01:56:59.778Z,33.79
2024-04-16T01:57:59.781Z,33.82
2024-04-16T01:58:59.780Z,33.82
2024-04-16T01:59:59.795Z,33.78
2024-04-16T02:00:59.961Z,33.79
2024-04-16T02:01:59.783Z,33.81
2024-04-16T02:02:59.834Z,33.79
2024-04-16T02:03:59.859Z,33.79
2024-04-16T02:04:59.860Z,33.79
2024-04-16T02:05:59.771Z,33.80
2024-04-16T02:06:59.797Z,33.79
2024-04-16T02:07:59.780Z,33.77
2024-04-16T02:08:59.831Z,33.74
2024-04-16T02:09:59.819Z,33.76
2024-04-16T02:10:59.787Z,33.75
2024-04-16T02:11:59.890Z,33.77
2024-04-16T02:12:59.802Z,33.75
2024-04-16T02:13:59.833Z,33.77
2024-04-16T02:14:59.798Z,33.74
2024-04-16T02:15:59.927Z,33.75
2024-04-16T02:16:59.853Z,33.74
2024-04-16T02:17:59.876Z,33.74
2024-04-16T02:18:59.833Z,33.73
2024-04-16T02:19:59.792Z,33.74
2024-04-16T02:20:59.820Z,33.73
2024-04-16T02:22:02.909Z,33.72
2024-04-16T02:22:59.821Z,33.72
2024-04-16T02:23:59.828Z,33.71
2024-04-16T02:24:59.815Z,33.72
2024-04-16T02:25:59.806Z,33.72
2024-04-16T02:26:59.803Z,33.72
2024-04-16T02:27:59.844Z,33.73
2024-04-16T02:28:59.812Z,33.72
2024-04-16T02:29:59.825Z,33.69
2024-04-16T02:30:59.874Z,33.70
2024-04-16T02:31:59.946Z,33.70
2024-04-16T02:32:59.879Z,33.69
2024-04-16T02:33:59.886Z,33.69
2024-04-16T02:34:59.835Z,33.71
2024-04-16T02:35:59.799Z,33.70
2024-04-16T02:36:59.922Z,33.70
2024-04-16T02:37:59.827Z,33.68
2024-04-16T02:38:59.823Z,33.68
2024-04-16T02:39:59.872Z,33.71
2024-04-16T02:40:59.812Z,33.68
2024-04-16T02:41:59.893Z,33.71
2024-04-16T02:42:59.828Z,33.67
2024-04-16T02:43:59.871Z,33.68
2024-04-16T02:44:59.833Z,33.68
2024-04-16T02:45:59.864Z,33.67
2024-04-16T02:47:02.202Z,33.68
2024-04-16T02:48:00.066Z,33.69
2024-04-16T02:48:59.863Z,33.69
2024-04-16T02:49:59.825Z,33.69
2024-04-16T02:50:59.849Z,33.67
2024-04-16T02:51:59.951Z,33.69
2024-04-16T02:52:59.825Z,33.67
2024-04-16T02:53:59.824Z,33.69
2024-04-16T02:54:59.877Z,33.69
2024-04-16T02:55:59.863Z,33.66
2024-04-16T02:56:59.854Z,33.66
2024-04-16T02:57:59.912Z,33.68
2024-04-16T02:58:59.822Z,33.67
2024-04-16T02:59:59.831Z,33.68
2024-04-16T03:01:00.011Z,33.66
2024-04-16T03:01:59.922Z,33.64
2024-04-16T03:02:59.913Z,33.66
2024-04-16T03:03:59.923Z,33.62
2024-04-16T03:04:59.927Z,33.64
2024-04-16T03:05:59.901Z,33.62
2024-04-16T03:06:59.909Z,33.64
2024-04-16T03:07:59.886Z,33.64
2024-04-16T03:08:59.854Z,33.64
2024-04-16T03:09:59.864Z,33.65
2024-04-16T03:10:59.947Z,33.64
2024-04-16T03:12:00.049Z,33.66
2024-04-16T03:13:00.076Z,33.63
2024-04-16T03:14:00.102Z,33.65
2024-04-16T03:15:00.201Z,33.64
2024-04-16T03:16:00.368Z,33.63
2024-04-16T03:17:00.339Z,33.64
2024-04-16T03:18:00.408Z,33.62
2024-04-16T03:19:00.551Z,33.62
2024-04-16T03:20:00.513Z,33.61
2024-04-16T03:21:00.658Z,33.62
2024-04-16T03:22:00.660Z,33.63
2024-04-16T03:23:00.691Z,33.61
2024-04-16T03:24:00.868Z,33.61
2024-04-16T03:25:00.964Z,33.63
2024-04-16T03:26:00.919Z,33.60
2024-04-16T03:27:00.990Z,33.60
2024-04-16T03:28:01.088Z,33.61
2024-04-16T03:29:01.155Z,33.60
2024-04-16T03:30:01.184Z,33.60
2024-04-16T03:31:01.213Z,33.59
2024-04-16T03:32:01.315Z,33.61
2024-04-16T03:33:01.423Z,33.61
2024-04-16T03:34:01.442Z,33.61
2024-04-16T03:35:01.501Z,33.59
2024-04-16T03:36:01.554Z,33.59
2024-04-16T03:37:01.634Z,33.61
2024-04-16T03:38:01.667Z,33.61
2024-04-16T03:39:01.732Z,33.60
2024-04-16T03:40:01.886Z,33.59
2024-04-16T03:41:02.027Z,33.59
2024-04-16T03:42:01.947Z,33.57
2024-04-16T03:43:02.043Z,33.57
2024-04-16T03:44:02.048Z,33.60
2024-04-16T03:45:02.133Z,33.59
2024-04-16T03:46:02.233Z,33.58
2024-04-16T03:47:02.350Z,33.56
2024-04-16T03:48:02.452Z,33.58
2024-04-16T03:49:02.488Z,33.58
2024-04-16T03:50:02.489Z,33.57
2024-04-16T03:51:02.524Z,33.59
2024-04-16T03:52:02.687Z,33.58
2024-04-16T03:53:02.696Z,33.56
2024-04-16T03:54:02.774Z,33.59
2024-04-16T03:55:02.924Z,33.58
2024-04-16T03:56:02.894Z,33.55
2024-04-16T03:57:02.999Z,33.56
2024-04-16T03:58:03.043Z,33.57
2024-04-16T03:59:03.121Z,33.56
2024-04-16T04:00:03.145Z,33.56
2024-04-16T04:01:03.301Z,33.55
2024-04-16T04:02:06.201Z,33.55
2024-04-16T04:03:03.373Z,33.55
2024-04-16T04:04:03.339Z,33.52
2024-04-16T04:05:03.382Z,33.35
2024-04-16T04:06:03.319Z,33.34
2024-04-16T04:07:03.378Z,33.20
2024-04-16T04:08:03.311Z,33.05
2024-04-16T04:09:03.291Z,32.91
2024-04-16T04:10:03.335Z,32.93
2024-04-16T04:11:03.389Z,32.76
2024-04-16T04:12:03.311Z,32.67
2024-04-16T04:13:03.332Z,32.57
2024-04-16T04:14:03.308Z,32.48
2024-04-16T04:15:03.318Z,32.37
2024-04-16T04:16:03.357Z,32.34
2024-04-16T04:17:03.340Z,32.26
2024-04-16T04:18:03.486Z,32.20
2024-04-16T04:19:03.364Z,32.08
2024-04-16T04:20:03.305Z,32.09
2024-04-16T04:21:03.329Z,32.04
2024-04-16T04:22:03.355Z,31.84
2024-04-16T04:23:03.358Z,31.82
2024-04-16T04:24:07.193Z,31.72
2024-04-16T04:25:04.339Z,31.64
2024-04-16T04:26:03.310Z,31.76
2024-04-16T04:27:03.337Z,31.50
2024-04-16T04:28:03.382Z,31.44
2024-04-16T04:29:03.381Z,31.50
2024-04-16T04:30:03.320Z,31.42
2024-04-16T04:31:03.377Z,31.36
2024-04-16T04:32:03.403Z,31.52
2024-04-16T04:33:03.369Z,31.46
2024-04-16T04:34:03.366Z,31.41
2024-04-16T04:35:03.354Z,31.50
2024-04-16T04:36:03.454Z,31.49
2024-04-16T04:37:03.497Z,31.51
2024-04-16T04:38:10.786Z,31.52
2024-04-16T04:39:10.833Z,31.60
2024-04-16T04:40:10.805Z,31.62
2024-04-16T04:41:10.746Z,31.64
2024-04-16T04:42:10.795Z,31.63
2024-04-16T04:43:10.761Z,31.62
2024-04-16T04:44:10.737Z,31.65
2024-04-16T04:45:10.884Z,31.66
2024-04-16T04:46:10.872Z,31.69
2024-04-16T04:47:10.777Z,31.66
2024-04-16T04:48:10.775Z,31.72
2024-04-16T04:49:10.764Z,31.74
2024-04-16T04:50:10.764Z,31.73
2024-04-16T04:51:10.748Z,31.76
2024-04-16T04:52:10.805Z,31.78
2024-04-16T04:53:10.769Z,31.78
2024-04-16T04:54:10.752Z,31.82
2024-04-16T04:55:10.803Z,31.82
2024-04-16T04:56:10.750Z,31.83
2024-04-16T04:57:10.882Z,31.83
2024-04-16T04:58:10.806Z,31.83
2024-04-16T04:59:10.794Z,31.87
2024-04-16T05:00:10.816Z,31.87
2024-04-16T05:01:10.793Z,31.89
2024-04-16T05:02:10.902Z,31.89
2024-04-16T05:03:10.758Z,31.89
2024-04-16T05:04:10.847Z,31.90
2024-04-16T05:05:10.775Z,31.86
2024-04-16T05:06:10.749Z,31.87
2024-04-16T05:07:10.872Z,31.89
2024-04-16T05:08:10.842Z,31.88
2024-04-16T05:09:10.877Z,31.92
2024-04-16T05:10:11.046Z,31.87
2024-04-16T05:11:11.498Z,31.89
2024-04-16T05:12:12.530Z,31.88
2024-04-16T05:13:11.082Z,31.89
2024-04-16T05:14:11.141Z,31.89
2024-04-16T05:15:11.304Z,31.88
2024-04-16T05:16:11.251Z,31.90
2024-04-16T05:17:11.287Z,31.90
2024-04-16T05:18:11.452Z,31.89
2024-04-16T05:19:11.385Z,31.89
2024-04-16T05:20:11.397Z,31.85
2024-04-16T05:21:12.400Z,31.91
2024-04-16T05:22:11.585Z,31.86
2024-04-16T05:23:11.557Z,31.80
2024-04-16T05:24:11.597Z,31.91
2024-04-16T05:25:11.651Z,31.75
2024-04-16T05:26:11.895Z,31.64
2024-04-16T05:27:11.654Z,31.36
2024-04-16T05:28:11.652Z,31.14
2024-04-16T05:29:11.659Z,30.18
2024-04-16T05:30:11.713Z,29.97
2024-04-16T05:31:11.738Z,29.92
2024-04-16T05:32:11.788Z,29.36
2024-04-16T05:33:11.897Z,28.88
2024-04-16T05:34:11.868Z,28.62
2024-04-16T05:35:11.851Z,28.43
2024-04-16T05:36:11.954Z,27.89
2024-04-16T05:37:11.998Z,28.34
2024-04-16T05:38:12.040Z,28.14
2024-04-16T05:39:12.079Z,28.71
2024-04-16T05:40:12.295Z,28.88
2024-04-16T05:41:12.295Z,28.63
2024-04-16T05:42:12.260Z,28.52
2024-04-16T05:43:12.415Z,27.95
2024-04-16T05:44:12.413Z,28.21
2024-04-16T05:45:13.378Z,28.57
2024-04-16T05:46:12.562Z,28.56
2024-04-16T05:47:12.946Z,28.64
2024-04-16T05:48:12.737Z,28.97
2024-04-16T05:49:12.905Z,29.11
2024-04-16T05:50:12.759Z,29.41
2024-04-16T05:51:12.802Z,29.65
2024-04-16T05:52:12.888Z,29.74
2024-04-16T05:53:12.915Z,29.76
2024-04-16T05:54:14.912Z,29.88
2024-04-16T05:55:13.037Z,30.07
2024-04-16T05:56:12.962Z,30.03
2024-04-16T05:57:12.999Z,30.19
2024-04-16T05:58:15.524Z,30.42
2024-04-16T05:59:14.270Z,30.51
2024-04-16T06:00:13.258Z,30.31
2024-04-16T06:01:13.368Z,30.07
2024-04-16T06:02:13.372Z,29.94
2024-04-16T06:03:13.299Z,29.76
2024-04-16T06:04:13.598Z,29.96
2024-04-16T06:05:13.450Z,29.61
2024-04-16T06:06:13.396Z,29.68
2024-04-16T06:07:13.482Z,29.47
2024-04-16T06:08:13.403Z,29.64
2024-04-16T06:09:13.398Z,29.59
2024-04-16T06:10:13.524Z,29.38
2024-04-16T06:11:13.729Z,29.60
2024-04-16T06:12:13.952Z,29.38
2024-04-16T06:13:13.435Z,29.22
2024-04-16T06:14:13.474Z,29.50
2024-04-16T06:15:13.584Z,29.16
2024-04-16T06:16:13.529Z,29.08
2024-04-16T06:17:13.429Z,29.04
2024-04-16T06:18:13.903Z,28.97
2024-04-16T06:19:13.494Z,29.03
2024-04-16T06:20:13.494Z,28.94
2024-04-16T06:21:13.506Z,28.90
2024-04-16T06:22:13.543Z,29.09
2024-04-16T06:23:13.916Z,28.84
2024-04-16T06:24:13.543Z,28.91
2024-04-16T06:25:14.070Z,28.88
2024-04-16T06:26:13.526Z,28.91
2024-04-16T06:27:13.906Z,28.95
2024-04-16T06:28:13.779Z,28.93
2024-04-16T06:29:13.570Z,28.77
2024-04-16T06:30:13.580Z,28.71
2024-04-16T06:31:16.649Z,28.66
2024-04-16T06:32:13.764Z,28.64
2024-04-16T06:33:14.427Z,28.62
2024-04-16T06:34:13.588Z,28.74
2024-04-16T06:35:13.596Z,28.85
2024-04-16T06:36:13.591Z,28.67
2024-04-16T06:37:13.626Z,28.53
2024-04-16T06:38:13.937Z,28.82
2024-04-16T06:39:13.702Z,29.11
2024-04-16T06:40:13.668Z,28.51
2024-04-16T06:41:13.749Z,28.57
2024-04-16T06:42:16.202Z,28.75
2024-04-16T06:43:14.019Z,28.76
2024-04-16T06:44:13.690Z,28.96
2024-04-16T06:45:13.605Z,29.01
2024-04-16T06:46:13.642Z,29.19
2024-04-16T06:47:13.639Z,29.29
2024-04-16T06:48:14.041Z,29.35
2024-04-16T06:49:18.405Z,29.44
2024-04-16T06:50:14.644Z,29.56
2024-04-16T06:51:13.700Z,29.60
2024-04-16T06:52:13.744Z,29.62
2024-04-16T06:53:13.955Z,29.66
2024-04-16T06:54:14.438Z,29.68
2024-04-16T06:55:13.646Z,29.73
2024-04-16T06:56:13.631Z,29.73
2024-04-16T06:57:13.615Z,29.76
2024-04-16T06:58:14.007Z,29.79
2024-04-16T06:59:13.920Z,29.81
2024-04-16T07:00:13.806Z,29.88
2024-04-16T07:01:13.906Z,29.87
2024-04-16T07:02:13.846Z,29.89
2024-04-16T07:03:15.455Z,29.93
2024-04-16T07:04:13.960Z,29.97
2024-04-16T07:05:13.975Z,29.94
2024-04-16T07:06:14.019Z,29.97
2024-04-16T07:07:14.199Z,30.02
2024-04-16T07:08:14.439Z,30.11
2024-04-16T07:09:14.108Z,30.11
2024-04-16T07:10:14.188Z,30.11
2024-04-16T07:11:14.206Z,30.14
2024-04-16T07:12:14.233Z,30.15
2024-04-16T07:13:15.798Z,30.16
2024-04-16T07:14:14.739Z,30.16
2024-04-16T07:15:14.278Z,30.21
2024-04-16T07:16:14.435Z,30.26
2024-04-16T07:17:14.953Z,30.25
2024-04-16T07:18:14.343Z,30.27
2024-04-16T07:19:14.441Z,30.30
2024-04-16T07:20:14.317Z,30.30
2024-04-16T07:21:14.271Z,30.33
2024-04-16T07:22:14.956Z,30.34
2024-04-16T07:23:14.295Z,30.34
2024-04-16T07:24:14.438Z,30.36
2024-04-16T07:25:14.286Z,30.37
2024-04-16T07:26:14.278Z,30.40
2024-04-16T07:27:14.977Z,30.41
2024-04-16T07:28:14.435Z,30.43
2024-04-16T07:29:14.297Z,30.44
2024-04-16T07:30:14.369Z,30.37
2024-04-16T07:31:18.284Z,30.45
2024-04-16T07:32:14.474Z,30.35
2024-04-16T07:33:14.576Z,29.24
2024-04-16T07:34:15.895Z,28.48
2024-04-16T07:35:14.295Z,28.38
2024-04-16T07:36:14.338Z,28.56
2024-04-16T07:37:14.528Z,28.05
2024-04-16T07:38:14.941Z,27.42
2024-04-16T07:39:17.485Z,27.06
2024-04-16T07:40:14.500Z,27.24
2024-04-16T07:41:14.473Z,27.70
2024-04-16T07:42:14.382Z,27.94
2024-04-16T07:43:15.247Z,28.06
2024-04-16T07:44:14.359Z,28.13
2024-04-16T07:45:14.460Z,28.18
2024-04-16T07:46:14.455Z,28.18
2024-04-16T07:47:14.625Z,28.22
2024-04-16T07:48:14.536Z,28.24
2024-04-16T07:49:14.481Z,28.37
2024-04-16T07:50:14.425Z,28.40
2024-04-16T07:51:14.404Z,28.38
2024-04-16T07:52:14.575Z,28.45
2024-04-16T07:53:14.467Z,28.44
2024-04-16T07:54:15.393Z,28.39
2024-04-16T07:55:14.603Z,28.51
2024-04-16T07:56:17.165Z,28.50
2024-04-16T07:57:15.754Z,28.56
2024-04-16T07:58:14.763Z,28.20
2024-04-16T07:59:14.875Z,28.08
2024-04-16T08:00:14.721Z,27.99
2024-04-16T08:01:18.739Z,27.85
2024-04-16T08:02:15.069Z,27.88
2024-04-16T08:03:14.754Z,27.69
2024-04-16T08:04:14.800Z,27.48
2024-04-16T08:05:14.705Z,27.52
2024-04-16T08:06:14.696Z,27.47
2024-04-16T08:07:14.683Z,27.47
2024-04-16T08:08:18.570Z,27.39
2024-04-16T08:09:15.660Z,27.37
2024-04-16T08:10:14.796Z,27.38
2024-04-16T08:11:14.865Z,27.26
2024-04-16T08:12:14.828Z,27.28
2024-04-16T08:13:15.037Z,27.50
2024-04-16T08:14:15.510Z,27.64
2024-04-16T08:15:14.669Z,27.75
2024-04-16T08:16:15.427Z,27.84
2024-04-16T08:17:14.761Z,27.92
2024-04-16T08:18:17.583Z,27.88
2024-04-16T08:19:16.488Z,27.94
2024-04-16T08:20:16.707Z,27.99
2024-04-16T08:21:15.394Z,27.98
2024-04-16T08:22:14.683Z,28.02
2024-04-16T08:23:15.086Z,28.07
2024-04-16T08:24:15.297Z,28.18
2024-04-16T08:25:14.867Z,28.21
2024-04-16T08:26:16.407Z,27.75
2024-04-16T08:27:14.956Z,27.15
2024-04-16T08:28:14.955Z,26.83
2024-04-16T08:29:14.978Z,26.62
2024-04-16T08:30:15.032Z,26.01
2024-04-16T08:31:15.023Z,25.99
2024-04-16T08:32:15.124Z,25.91
2024-04-16T08:33:15.393Z,25.65
2024-04-16T08:34:15.605Z,25.33
2024-04-16T08:35:15.379Z,25.59
2024-04-16T08:36:15.472Z,25.60
2024-04-16T08:37:15.362Z,25.59
2024-04-16T08:38:15.518Z,25.49
2024-04-16T08:39:15.576Z,25.38
2024-04-16T08:40:15.410Z,25.43
2024-04-16T08:41:15.378Z,25.60
2024-04-16T08:42:15.399Z,25.79
2024-04-16T08:43:15.759Z,26.23
2024-04-16T08:44:15.553Z,26.36
2024-04-16T08:45:15.779Z,26.44
2024-04-16T08:46:15.537Z,27.04
2024-04-16T08:47:15.579Z,27.23
2024-04-16T08:48:15.613Z,27.51
2024-04-16T08:49:16.498Z,27.44
2024-04-16T08:50:15.860Z,27.33
2024-04-16T08:51:21.001Z,27.41
2024-04-16T08:52:15.767Z,27.30
2024-04-16T08:53:16.131Z,27.62
2024-04-16T08:54:17.033Z,27.79
2024-04-16T08:55:15.893Z,27.71
2024-04-16T08:56:15.907Z,27.43
2024-04-16T08:57:15.915Z,27.28
2024-04-16T08:58:16.045Z,27.13
2024-04-16T08:59:15.999Z,27.02
2024-04-16T09:00:16.719Z,26.99
2024-04-16T09:01:16.203Z,26.91
2024-04-16T09:02:16.383Z,27.16
2024-04-16T09:03:16.566Z,27.12
2024-04-16T09:04:16.248Z,27.29
2024-04-16T09:05:16.328Z,27.25
2024-04-16T09:06:16.634Z,27.47
2024-04-16T09:07:16.300Z,27.45
2024-04-16T09:08:17.039Z,27.37
2024-04-16T09:09:16.323Z,27.49
2024-04-16T09:10:16.407Z,27.26
2024-04-16T09:11:16.488Z,27.13
2024-04-16T09:12:16.545Z,26.94
2024-04-16T09:13:16.571Z,27.06
2024-04-16T09:14:16.603Z,27.02
2024-04-16T09:15:16.866Z,26.91
2024-04-16T09:16:16.647Z,26.97
2024-04-16T09:17:17.220Z,26.83
2024-04-16T09:18:16.606Z,26.85
2024-04-16T09:19:16.643Z,26.78
2024-04-16T09:20:16.622Z,26.85
2024-04-16T09:21:16.788Z,26.90
2024-04-16T09:22:20.106Z,26.85
2024-04-16T09:23:17.415Z,26.78
2024-04-16T09:24:16.735Z,26.76
2024-04-16T09:25:16.748Z,26.79
2024-04-16T09:26:16.825Z,26.64
2024-04-16T09:27:17.012Z,26.60
2024-04-16T09:28:19.291Z,26.59
2024-04-16T09:29:16.768Z,26.63
2024-04-16T09:30:16.766Z,26.67
2024-04-16T09:31:17.748Z,26.68
2024-04-16T09:32:16.739Z,27.14
2024-04-16T09:34:19.652Z,26.79
2024-04-16T09:35:16.700Z,26.74
2024-04-16T09:36:16.693Z,26.79
2024-04-16T09:37:17.247Z,26.75
2024-04-16T09:38:17.197Z,26.67
2024-04-16T09:39:16.831Z,26.68
2024-04-16T09:40:16.783Z,26.67
2024-04-16T09:41:16.722Z,26.69
2024-04-16T09:42:16.736Z,26.70
2024-04-16T09:43:17.055Z,26.64
2024-04-16T09:44:16.722Z,26.64
2024-04-16T09:45:16.748Z,26.56
2024-04-16T09:46:17.140Z,26.59
2024-04-16T09:47:16.777Z,26.61
2024-04-16T09:48:16.835Z,26.56
2024-04-16T09:49:17.082Z,26.48
2024-04-16T09:50:27.236Z,26.52
2024-04-16T09:51:18.039Z,26.49
2024-04-16T09:52:16.790Z,26.47
2024-04-16T09:53:17.121Z,26.51
2024-04-16T09:54:17.676Z,26.39
2024-04-16T09:55:17.058Z,26.41
2024-04-16T09:56:16.785Z,26.37
2024-04-16T09:57:16.809Z,26.36
2024-04-16T09:58:16.836Z,26.33
2024-04-16T09:59:16.842Z,26.28
2024-04-16T10:00:17.997Z,26.28
2024-04-16T10:01:17.607Z,26.22
2024-04-16T10:02:16.952Z,26.26
2024-04-16T10:03:17.173Z,26.27
2024-04-16T10:04:18.224Z,26.23
2024-04-16T10:05:17.242Z,26.25
2024-04-16T10:06:17.211Z,26.23
2024-04-16T10:07:17.750Z,26.18
2024-04-16T10:08:17.684Z,26.18
2024-04-16T10:09:17.281Z,26.20
2024-04-16T10:10:17.404Z,26.09
2024-04-16T10:11:24.628Z,26.14
2024-04-16T10:12:18.565Z,26.13
2024-04-16T10:13:17.370Z,26.15
2024-04-16T10:14:17.354Z,26.19
2024-04-16T10:15:17.394Z,26.19
2024-04-16T10:16:17.387Z,26.27
2024-04-16T10:17:17.559Z,26.34
2024-04-16T10:18:17.454Z,26.36
2024-04-16T10:19:17.460Z,26.34
2024-04-16T10:20:17.420Z,26.36
2024-04-16T10:21:17.470Z,26.42
2024-04-16T10:22:17.583Z,26.44
2024-04-16T10:23:17.712Z,26.42
2024-04-16T10:24:18.117Z,26.47
2024-04-16T10:25:19.115Z,26.47
2024-04-16T10:26:18.166Z,26.46
2024-04-16T10:27:17.862Z,26.20
2024-04-16T10:28:17.970Z,26.05
2024-04-16T10:29:17.975Z,26.14
2024-04-16T10:30:17.983Z,26.09
2024-04-16T10:31:18.617Z,25.99
2024-04-16T10:32:18.094Z,25.61
2024-04-16T10:33:18.276Z,25.73
2024-04-16T10:34:18.269Z,25.62
2024-04-16T10:35:18.291Z,25.59
2024-04-16T10:36:18.326Z,25.59
2024-04-16T10:37:18.426Z,25.67
2024-04-16T10:38:18.544Z,25.72
2024-04-16T10:39:18.557Z,25.81
2024-04-16T10:40:18.602Z,25.77
2024-04-16T10:41:18.598Z,25.93
2024-04-16T10:42:18.694Z,25.85
2024-04-16T10:43:20.332Z,25.80
2024-04-16T10:44:19.060Z,25.74
2024-04-16T10:45:18.796Z,25.55
2024-04-16T10:46:18.855Z,25.55
2024-04-16T10:47:18.955Z,25.78
2024-04-16T10:48:18.794Z,25.62
2024-04-16T10:49:19.124Z,25.86
2024-04-16T10:50:19.056Z,25.95
2024-04-16T10:51:18.769Z,26.01
2024-04-16T10:52:18.810Z,26.01
2024-04-16T10:53:18.783Z,26.09
2024-04-16T10:54:18.748Z,26.13
2024-04-16T10:55:19.073Z,26.09
2024-04-16T10:56:18.779Z,26.06
2024-04-16T10:57:18.785Z,25.94
2024-04-16T10:58:18.771Z,26.06
2024-04-16T10:59:18.760Z,26.14
2024-04-16T11:00:18.769Z,25.87
2024-04-16T11:01:18.789Z,25.99
2024-04-16T11:02:19.080Z,26.13
2024-04-16T11:03:18.857Z,26.04
2024-04-16T11:04:19.024Z,25.98
2024-04-16T11:05:19.581Z,25.77
2024-04-16T11:06:19.148Z,25.35
2024-04-16T11:07:19.582Z,25.02
2024-04-16T11:08:18.816Z,25.00
2024-04-16T11:09:18.751Z,25.05
2024-04-16T11:10:18.836Z,24.72
2024-04-16T11:11:18.797Z,24.54
2024-04-16T11:12:18.778Z,24.64
2024-04-16T11:13:18.825Z,24.51
2024-04-16T11:14:18.771Z,24.70
2024-04-16T11:15:18.779Z,24.69
2024-04-16T11:16:19.118Z,24.78
2024-04-16T11:17:18.830Z,24.83
2024-04-16T11:18:18.881Z,24.68
2024-04-16T11:19:18.883Z,24.72
2024-04-16T11:20:18.814Z,24.56
2024-04-16T11:21:18.804Z,24.59
2024-04-16T11:22:18.908Z,24.94
2024-04-16T11:23:18.834Z,24.91
2024-04-16T11:24:18.830Z,24.95
2024-04-16T11:25:18.880Z,24.48
2024-04-16T11:26:18.781Z,24.42
2024-04-16T11:27:18.863Z,24.53
2024-04-16T11:28:19.078Z,24.34
2024-04-16T11:29:18.962Z,24.32
2024-04-16T11:30:19.009Z,24.35
2024-04-16T11:31:19.066Z,24.56
2024-04-16T11:32:19.084Z,24.72
2024-04-16T11:33:23.371Z,24.74
2024-04-16T11:34:20.172Z,24.66
2024-04-16T11:35:19.224Z,24.18
2024-04-16T11:36:19.122Z,23.84
2024-04-16T11:37:19.222Z,23.87
2024-04-16T11:38:19.133Z,23.80
2024-04-16T11:39:19.102Z,23.75
2024-04-16T11:40:19.189Z,23.47
2024-04-16T11:41:19.389Z,23.42
2024-04-16T11:42:19.175Z,23.40
2024-04-16T11:43:19.187Z,23.28
2024-04-16T11:44:19.113Z,23.14
2024-04-16T11:45:19.124Z,23.00
2024-04-16T11:46:19.330Z,22.78
2024-04-16T11:47:19.285Z,22.70
2024-04-16T11:48:19.301Z,22.82
2024-04-16T11:49:19.373Z,22.78
2024-04-16T11:50:19.415Z,22.60
2024-04-16T11:51:19.454Z,22.60
2024-04-16T11:52:19.623Z,22.54
2024-04-16T11:53:19.603Z,22.50
2024-04-16T11:54:19.650Z,22.32
2024-04-16T11:55:19.713Z,22.24
2024-04-16T11:56:19.765Z,21.96
2024-04-16T11:57:19.831Z,22.08
2024-04-16T11:58:19.994Z,21.97
2024-04-16T11:59:19.987Z,21.70
2024-04-16T12:00:20.019Z,21.88
2024-04-16T12:01:20.157Z,21.91
2024-04-16T12:02:20.202Z,21.82
2024-04-16T12:03:20.191Z,21.30
2024-04-16T12:04:20.333Z,20.71
2024-04-16T12:05:20.378Z,20.60
2024-04-16T12:06:20.346Z,20.69
2024-04-16T12:07:20.403Z,20.45
2024-04-16T12:08:20.384Z,20.42
2024-04-16T12:09:20.415Z,20.57
2024-04-16T12:10:20.479Z,21.07
2024-04-16T12:11:20.520Z,21.16
2024-04-16T12:12:20.442Z,21.46
2024-04-16T12:13:20.445Z,21.70
2024-04-16T12:14:20.452Z,22.00
2024-04-16T12:15:20.514Z,22.18
2024-04-16T12:16:20.689Z,22.42
2024-04-16T12:17:20.639Z,22.92
2024-04-16T12:18:20.892Z,23.24
2024-04-16T12:19:20.933Z,23.48
2024-04-16T12:20:20.791Z,23.92
2024-04-16T12:21:20.902Z,24.14
2024-04-16T12:22:20.925Z,24.34
2024-04-16T12:23:21.006Z,24.75
2024-04-16T12:24:21.030Z,24.48
2024-04-16T12:25:21.150Z,24.41
2024-04-16T12:26:21.145Z,24.42
2024-04-16T12:27:21.195Z,24.38
2024-04-16T12:28:21.616Z,24.35
2024-04-16T12:29:21.318Z,24.34
2024-04-16T12:30:21.395Z,24.32
2024-04-16T12:31:21.459Z,24.25
2024-04-16T12:32:21.483Z,24.27
2024-04-16T12:33:21.654Z,24.22
2024-04-16T12:34:21.579Z,24.18
2024-04-16T12:35:21.683Z,24.15
2024-04-16T12:36:21.702Z,24.16
2024-04-16T12:37:21.767Z,24.12
2024-04-16T12:38:21.750Z,24.12
2024-04-16T12:39:21.808Z,24.11
2024-04-16T12:40:23.855Z,24.07
2024-04-16T12:41:22.146Z,24.03
2024-04-16T12:42:21.921Z,24.03
2024-04-16T12:43:21.906Z,23.99
2024-04-16T12:44:21.803Z,23.96
2024-04-16T12:45:21.860Z,23.95
2024-04-16T12:46:21.902Z,23.94
2024-04-16T12:47:21.906Z,23.93
2024-04-16T12:48:22.055Z,23.86
2024-04-16T12:49:21.987Z,23.86
2024-04-16T12:50:21.875Z,23.84
2024-04-16T12:51:21.893Z,23.81
2024-04-16T12:52:21.848Z,23.78
2024-04-16T12:53:21.862Z,23.76
2024-04-16T12:54:22.618Z,23.70